Emmett, MI (48022)

5:10 AM EST on February 10, 2016 (GMT -0500)
capac,mi | | Change Station
CLOSE
Current Station
Personal Weather Station
Location: Capac, MI
Elevation: 833 ft
Nearby Weather Stations

Elev 833 ft 43.03 °N, 82.93 °W | Updated 5 seconds ago

Overcast
Overcast
19.5 °F
Feels Like 20 °F
N
3.0
Wind Variable Wind from WNW
Gusts 9.0 mph

Today
High -- | Low -- °F
--% Chance of Precip.
Yesterday
High -- | Low -- °F
Precip. -- in
Pressure 29.69 in
Visibility 5.0 miles
Clouds Scattered Clouds 1900 ft
Mostly Cloudy 3900 ft
Overcast 5500 ft
Windchill 20 °F
Dew Point 17 °F
Humidity 90%
Rainfall 0.00 in
Snow Depth Not available.
7:36 AM 5:55 PM
Waxing Crescent, 4% visible
METAR KPHN 100956Z AUTO 27005KT 5SM -SN SCT019 BKN039 OVC055 M07/M08 A2969 RMK AO2
Pressure 29.69 in
Visibility 5.0 miles
Clouds Scattered Clouds 1900 ft
Mostly Cloudy 3900 ft
Overcast 5500 ft
Windchill 20 °F
Dew Point 17 °F
Humidity 90%
Rainfall 0.00 in
Snow Depth Not available.
7:36 AM 5:55 PM
Waxing Crescent, 4% visible
METAR KPHN 100956Z AUTO 27005KT 5SM -SN SCT019 BKN039 OVC055 M07/M08 A2969 RMK AO2

10-Day Weather Forecast

Almanac

Astronomy

Feb. 10, 2016 Rise Set
Actual Time
Civil Twilight
Nautical Twilight
Astronomical Twilight
Moon
Length of Visible Light
Length of Day
Tomorrow will be .
, % of the Moon is Illuminated

Today's Extremes

State Highs State Lows

Community

WunderPhotos

Upload Photos

1,891,828 photos uploaded!

WunderBlog® & News

Nearby

Air Quality

  Air Quality AQ Index Pollutant
Not available.

Snow Depth

Station Depth Elevation

Earthquake Activity

City Distance Mag. Time & Date
Minimum magnitude displayed is 2.5.

Coastal Water Temperatures

Place Temperature

Stations

Nearby Weather Stations

Station Location Temp. Windchill Dew Point Humidity Wind Precip. Elev Updated Type
                   

Watches & Warnings

There are currently no watches in effect.